Latest Weather Observations for Cape Willoughby

IDS60801

Issued at 4:31 am CDT Monday 26 January 2015 (issued every 30 minutes, with the page automatically refreshed every 10 minutes)

About weather observations | Map of weather stations | Latest weather observations for SA | Other Formats
Station Details ID: 022803 Name: CAPE WILLOUGHBY Lat: -35.84 Lon: 138.13 Height: 55.0 m
Data from the previous 72 hours. | See also: Recent months at Cape Willoughby
Date/Time
CDT
Temp
°C
App
Temp
°C
Dew
Point
Rel
Hum
%
Delta-T
°C
Wind Press
QNH
hPa
Press
MSL
hPa
Rain
since 9 am
mm
Dir
 
Spd
km/h
Gust
km/h
Spd
kts
Gust
kts
26/04:30am 15.4 11.0 6.4 55 4.4 S 19 24 10 13 1016.4 1016.3 0.4
26/04:00am 15.5 10.9 8.0 61 3.8 S 22 32 12 17 1016.2 1016.1 0.4
26/03:30am 15.4 10.1 8.4 63 3.5 S 26 37 14 20 1016.1 1016.0 0.4
26/03:00am 15.2 11.3 9.3 68 3.0 SSE 20 32 11 17 1015.9 1015.8 0.4
26/02:30am 14.8 9.7 10.6 76 2.2 SSE 28 39 15 21 1015.9 1015.8 0.4
26/02:23am 14.9 9.6 11.3 79 1.9 SSE 30 48 16 26 1016.1 1016.0 0.4
26/02:16am 15.1 9.2 11.1 77 2.1 S 33 48 18 26 1015.8 1015.7 0.4
26/02:00am 15.1 11.0 10.1 72 2.6 SSE 22 28 12 15 1016.1 1016.0 0.4
26/01:30am 15.6 10.1 12.0 79 2.0 S 32 43 17 23 1016.0 1015.9 0.4
26/01:00am 15.4 9.7 9.7 69 3.0 S 30 39 16 21 1016.4 1016.3 0.4
26/12:30am 15.4 10.1 9.7 69 3.0 S 28 35 15 19 1016.5 1016.4 0.4
26/12:00am 15.5 10.2 9.8 69 3.0 S 28 35 15 19 1016.5 1016.4 0.4
 
Date/Time
CDT
Temp
°C
App
Temp
°C
Dew
Point
Rel
Hum
%
Delta-T
°C
Wind Press
QNH
hPa
Press
MSL
hPa
Rain
since 9 am
mm
Dir
 
Spd
km/h
Gust
km/h
Spd
kts
Gust
kts
25/11:30pm 15.6 10.1 10.4 71 2.7 S 30 37 16 20 1016.3 1016.2 0.4
25/11:00pm 15.5 11.3 9.8 69 3.0 S 22 32 12 17 1016.4 1016.3 0.2
25/10:30pm 15.2 9.2 10.0 71 2.7 S 32 41 17 22 1016.2 1016.1 0.2
25/10:00pm 14.8 12.2 10.8 77 2.1 S 15 22 8 12 1016.3 1016.2 0.2
25/09:30pm 15.4 10.4 10.8 74 2.4 S 28 50 15 27 1015.6 1015.5 0.0
25/09:00pm 15.9 11.0 9.8 67 3.2 S 26 37 14 20 1015.6 1015.5 0.0
25/08:30pm 15.9 10.4 9.3 65 3.4 S 28 41 15 22 1015.4 1015.3 0.0
25/08:00pm 15.9 10.7 8.9 63 3.6 S 26 37 14 20 1015.3 1015.2 0.0
25/07:30pm 16.2 11.4 10.3 68 3.1 S 26 44 14 24 1015.1 1015.0 0.0
25/07:00pm 16.5 10.7 8.0 57 4.3 SSW 28 43 15 23 1014.7 1014.6 0.0
25/06:30pm 17.0 11.0 8.7 58 4.3 SSW 30 41 16 22 1014.6 1014.5 0.0
25/06:00pm 17.1 10.9 7.7 54 4.7 SSW 30 46 16 25 1014.6 1014.5 0.0
25/05:30pm 17.7 11.3 8.6 55 4.7 SSW 32 43 17 23 1014.6 1014.5 0.0
25/05:00pm 17.6 10.5 7.9 53 4.9 SSW 35 46 19 25 1014.5 1014.4 0.0
25/04:30pm 18.1 11.1 8.4 53 5.0 SW 35 44 19 24 1014.6 1014.5 0.0
25/04:00pm 17.4 10.0 8.3 55 4.7 SW 37 46 20 25 1014.5 1014.4 0.0
25/03:30pm 18.0 10.4 7.7 51 5.2 SW 37 50 20 27 1014.4 1014.3 0.0
25/03:00pm 18.7 11.0 7.2 47 5.8 SW 37 46 20 25 1014.5 1014.4 0.0
25/02:30pm 17.7 10.9 9.1 57 4.5 SW 35 44 19 24 1014.7 1014.6 0.0
25/02:00pm 18.7 11.9 7.5 48 5.7 SW 33 46 18 25 1014.7 1014.6 0.0
25/01:30pm 18.1 10.8 8.7 54 4.9 SW 37 46 20 25 1014.7 1014.6 0.0
25/01:00pm 17.4 10.4 6.9 50 5.2 SW 33 41 18 22 1014.7 1014.6 0.0
25/12:30pm 18.1 12.4 6.9 48 5.6 SW 26 41 14 22 1014.6 1014.5 0.0
25/12:00pm 17.4 11.5 9.1 58 4.3 SW 30 39 16 21 1014.7 1014.6 0.0
25/11:30am 16.9 9.9 8.6 58 4.3 SW 35 44 19 24 1014.7 1014.6 0.0
25/11:00am 17.0 10.1 7.1 52 4.9 SW 33 43 18 23 1014.2 1014.1 0.0
25/10:30am 16.2 9.1 7.9 58 4.2 SW 35 48 19 26 1014.1 1014.0 0.0
25/10:00am 17.4 12.6 7.5 52 5.0 SW 22 32 12 17 1013.9 1013.8 0.0
25/09:30am 16.9 10.4 6.7 51 5.0 SW 30 37 16 20 1013.8 1013.7 0.0
25/09:00am 16.3 9.3 6.7 53 4.7 SW 33 41 18 22 1013.1 1013.0 1.2
25/08:30am 15.7 11.3 8.9 64 3.5 SSW 22 30 12 16 1013.0 1012.9 1.2
25/08:00am 15.5 10.1 9.6 68 3.1 SW 28 39 15 21 1012.4 1012.3 1.2
25/07:30am 14.8 11.1 7.8 63 3.5 WSW 17 22 9 12 1012.2 1012.1 1.2
25/07:00am 14.3 9.9 6.6 60 3.7 WSW 19 24 10 13 1011.8 1011.7 1.2
25/06:30am 14.8 8.7 6.6 58 4.0 SW 28 41 15 22 1011.2 1011.1 1.2
25/06:00am 15.0 8.6 6.8 58 4.0 SSW 30 37 16 20 1010.7 1010.6 1.2
25/05:30am 15.1 7.7 6.9 58 4.0 SW 35 43 19 23 1010.2 1010.1 1.2
25/05:00am 15.4 9.8 8.9 65 3.3 SSW 28 37 15 20 1010.1 1010.0 1.2
25/04:30am 15.3 10.4 8.5 64 3.5 SW 24 32 13 17 1009.8 1009.7 1.2
25/04:00am 15.2 8.5 7.3 59 3.9 SW 32 43 17 23 1009.7 1009.5 1.2
25/03:30am 15.3 8.3 8.5 64 3.5 SW 35 46 19 25 1009.5 1009.3 1.2
25/03:00am 14.8 9.1 6.9 59 3.9 WSW 26 37 14 20 1009.8 1009.7 1.2
25/02:30am 15.2 8.0 7.7 61 3.7 SW 35 44 19 24 1009.8 1009.7 1.2
25/02:00am 15.6 7.6 9.1 65 3.3 SW 41 52 22 28 1009.6 1009.4 1.2
25/01:30am 15.2 7.9 10.2 72 2.6 SSW 39 56 21 30 1009.6 1009.4 1.2
25/01:00am 15.7 7.8 10.7 72 2.7 SSW 43 54 23 29 1009.4 1009.2 1.2
25/12:30am 16.2 10.6 11.4 73 2.6 SW 32 50 17 27 1009.6 1009.4 1.2
25/12:00am 16.1 9.8 11.1 72 2.7 SW 35 48 19 26 1009.3 1009.1 1.2
 
Date/Time
CDT
Temp
°C
App
Temp
°C
Dew
Point
Rel
Hum
%
Delta-T
°C
Wind Press
QNH
hPa
Press
MSL
hPa
Rain
since 9 am
mm
Dir
 
Spd
km/h
Gust
km/h
Spd
kts
Gust
kts
24/11:30pm 16.1 9.5 11.5 74 2.5 SW 37 48 20 26 1009.2 1009.0 1.2
24/11:01pm 16.1 10.9 12.8 81 1.8 WSW 32 56 17 30 1009.0 1008.8 1.2
24/11:00pm 15.8 10.9 12.4 80 1.9 WSW 30 46 16 25 1009.1 1008.9 1.2
24/10:30pm 15.6 11.0 12.2 80 1.9 WSW 28 41 15 22 1009.1 1008.9 1.2
24/10:00pm 15.9 10.9 13.9 88 1.1 SW 33 43 18 23 1008.7 1008.5 1.2
24/09:30pm 15.8 12.3 14.5 92 0.7 WSW 26 41 14 22 1008.4 1008.2 1.2
24/09:00pm 16.0 9.8 13.7 86 1.3 WSW 39 54 21 29 1007.9 1007.7 0.0
24/08:49pm 18.2 14.6 12.9 71 3.0 W 24 61 13 33 1007.6 1007.4 0.0
24/08:30pm 18.3 14.8 12.1 67 3.4 WNW 22 32 12 17 1007.2 1007.0 0.0
24/08:00pm 18.0 12.0 12.2 69 3.2 W 35 57 19 31 1006.9 1006.7 0.0
24/07:58pm 17.8 11.5 12.3 70 3.1 W 37 57 20 31 1006.8 1006.6 0.0
24/07:30pm 18.0 11.1 12.7 71 3.0 WSW 41 50 22 27 1006.4 1006.2 0.0
24/07:21pm 18.8 12.1 11.1 61 4.2 WSW 37 52 20 28 1006.4 1006.2 0.0
24/07:00pm 21.0 15.4 13.2 61 4.5 NW 35 50 19 27 1006.0 1005.8 0.0
24/06:32pm 20.9 14.8 13.1 61 4.5 WNW 37 56 20 30 1005.5 1005.3 0.0
24/06:30pm 21.2 15.8 12.9 59 4.7 WNW 33 50 18 27 1005.6 1005.4 0.0
24/06:00pm 21.6 15.2 13.2 59 4.8 NW 39 54 21 29 1005.4 1005.2 0.0
24/05:30pm 21.4 14.8 12.5 57 5.1 NW 39 50 21 27 1005.7 1005.5 0.0
24/05:00pm 22.2 15.1 12.2 53 5.7 NW 41 57 22 31 1005.7 1005.5 0.0
24/04:30pm 22.1 15.4 12.4 54 5.5 NW 39 54 21 29 1005.8 1005.6 0.0
24/04:03pm 22.2 16.9 12.5 54 5.5 NW 32 56 17 30 1005.9 1005.7 0.0
24/04:00pm 22.2 18.4 12.5 54 5.5 NW 24 43 13 23 1006.0 1005.8 0.0
24/03:30pm 20.1 16.6 13.3 65 3.9 SW 24 41 13 22 1006.4 1006.2 0.0
24/03:20pm 22.2 19.5 13.5 57 5.0 W 20 43 11 23 1006.2 1006.0 0.0
24/03:00pm 20.1 18.9 12.8 63 4.1 ESE 11 19 6 10 1006.6 1006.4 0.0
24/02:30pm 20.4 18.5 13.1 63 4.2 SE 15 19 8 10 1006.4 1006.2 0.0
24/02:00pm 20.3 18.9 13.5 65 3.9 SSE 13 17 7 9 1006.8 1006.6 0.0
24/01:37pm 21.4 15.7 13.1 59 4.8 NNW 35 52 19 28 1006.9 1006.7 0.0
24/01:30pm 21.5 15.6 12.4 56 5.2 NNW 35 50 19 27 1006.6 1006.4 0.0
24/01:00pm 21.9 16.6 11.3 51 5.9 NW 30 41 16 22 1007.0 1006.8 0.0
24/12:30pm 21.4 17.9 10.9 51 5.8 NNW 20 32 11 17 1007.2 1007.0 0.0
24/12:00pm 21.2 16.4 11.5 54 5.4 NW 28 41 15 22 1007.3 1007.1 0.0
24/11:42am 20.9 15.9 11.0 53 5.4 NW 28 46 15 25 1007.4 1007.2 0.0
24/11:30am 20.4 16.5 10.8 54 5.3 WNW 22 32 12 17 1007.6 1007.4 0.0
24/11:00am 19.9 15.6 10.9 56 4.9 WNW 24 35 13 19 1007.6 1007.4 0.0
24/10:30am 18.9 14.9 10.5 58 4.5 W 22 32 12 17 1007.8 1007.6 0.0
24/10:00am 19.0 14.6 10.3 57 4.7 W 24 32 13 17 1007.8 1007.6 0.0
24/09:30am 19.2 15.6 10.5 57 4.7 WNW 20 30 11 16 1008.1 1007.9 0.0
24/09:00am 18.9 14.8 10.2 57 4.7 WNW 22 32 12 17 1008.2 1008.0 0.0
24/08:30am 17.6 14.6 10.7 64 3.7 WNW 17 22 9 12 1007.9 1007.7 0.0
24/08:00am 16.9 14.8 11.2 69 3.1 W 13 20 7 11 1007.8 1007.6 0.0
24/07:30am 15.5 12.3 11.9 79 2.0 W 20 28 11 15 1007.8 1007.6 0.0
24/07:00am 14.8 11.8 12.1 84 1.5 W 19 22 10 12 1007.5 1007.3 0.0
24/06:30am 15.0 12.5 12.3 84 1.5 W 17 20 9 11 1007.4 1007.2 0.0
24/06:00am 15.5 12.6 12.3 81 1.8 W 19 24 10 13 1007.5 1007.3 0.0
24/05:30am 15.8 13.3 12.2 79 2.0 W 17 24 9 13 1007.5 1007.3 0.0
24/05:00am 15.8 14.3 12.0 78 2.1 WNW 11 11 6 6 1007.5 1007.3 0.0
24/04:30am 15.8 14.3 11.8 77 2.2 WNW 11 13 6 7 1007.6 1007.4 0.0
24/04:00am 15.8 14.3 11.8 77 2.2 WNW 11 11 6 6 1007.8 1007.6 0.0
24/03:30am 15.8 14.3 12.0 78 2.1 WNW 11 13 6 7 1008.1 1007.9 0.0
24/03:00am 15.8 14.3 12.0 78 2.1 WNW 11 13 6 7 1008.3 1008.1 0.0
24/02:30am 16.2 15.9 12.6 79 2.0 E 6 7 3 4 1008.2 1008.0 0.0
24/02:00am 16.7 17.6 12.8 78 2.2 CALM 0 0 0 0 1008.5 1008.3 0.0
24/01:30am 16.6 17.5 12.8 78 2.1 CALM 0 0 0 0 1008.9 1008.7 0.0
24/01:00am 16.7 17.1 12.5 76 2.3 E 2 6 1 3 1009.1 1008.9 0.0
24/12:30am 16.9 17.0 12.6 76 2.4 SE 4 7 2 4 1009.2 1009.0 0.0
24/12:00am 16.6 16.1 12.2 75 2.4 SE 6 7 3 4 1009.5 1009.3 0.0
 
Date/Time
CDT
Temp
°C
App
Temp
°C
Dew
Point
Rel
Hum
%
Delta-T
°C
Wind Press
QNH
hPa
Press
MSL
hPa
Rain
since 9 am
mm
Dir
 
Spd
km/h
Gust
km/h
Spd
kts
Gust
kts
23/11:30pm 16.8 16.2 12.3 75 2.5 SE 7 11 4 6 1009.7 1009.5 0.0
23/11:00pm 17.0 16.0 12.3 74 2.6 SSE 9 13 5 7 1009.6 1009.4 0.0
23/10:30pm 17.3 15.7 12.8 75 2.5 S 13 17 7 9 1009.8 1009.7 0.0
23/10:00pm 17.4 15.7 12.3 72 2.8 S 13 17 7 9 1010.0 1009.9 0.0
23/09:30pm 17.4 15.3 12.3 72 2.8 S 15 19 8 10 1009.6 1009.4 0.0
23/09:00pm 17.7 14.9 12.6 72 2.8 S 19 22 10 12 1009.7 1009.5 0.0
23/08:30pm 17.8 14.8 12.5 71 3.0 S 20 24 11 13 1009.3 1009.1 0.0
23/08:00pm 18.0 14.8 12.0 68 3.3 S 20 24 11 13 1009.4 1009.2 0.0
23/07:30pm 18.0 15.0 12.5 70 3.1 S 20 24 11 13 1009.2 1009.0 0.0
23/07:00pm 18.1 15.2 12.8 71 3.0 S 20 26 11 14 1009.3 1009.1 0.0
23/06:30pm 18.2 15.4 13.3 73 2.8 S 20 28 11 15 1009.1 1008.9 0.0
23/06:00pm 18.6 16.3 14.1 75 2.6 S 19 24 10 13 1009.2 1009.0 0.0
23/05:30pm 18.8 16.3 13.4 71 3.1 SSW 19 26 10 14 1009.2 1009.0 0.0
23/05:00pm 19.0 16.3 13.4 70 3.2 S 20 28 11 15 1009.3 1009.1 0.0
23/04:30pm 19.3 16.3 13.7 70 3.2 S 22 32 12 17 1009.4 1009.2 0.0
23/04:00pm 19.2 16.3 12.9 67 3.6 S 20 30 11 16 1009.5 1009.3 0.0
23/03:30pm 19.5 16.6 12.8 65 3.8 S 20 32 11 17 1009.6 1009.4 0.0
23/03:00pm 19.2 16.3 12.2 64 3.9 S 19 26 10 14 1009.8 1009.7 0.0
23/02:30pm 19.5 16.5 12.0 62 4.2 S 19 28 10 15 1009.9 1009.8 0.0
23/02:00pm 19.4 16.9 12.2 63 4.0 S 17 28 9 15 1010.2 1010.1 0.0
23/01:30pm 19.5 16.8 11.8 61 4.3 S 17 28 9 15 1010.3 1010.2 0.0
23/01:00pm 19.0 17.0 11.6 62 4.1 S 13 20 7 11 1010.4 1010.3 0.0
23/12:30pm 19.0 17.3 12.3 65 3.7 S 13 19 7 10 1010.6 1010.5 0.0
23/12:00pm 19.3 17.8 11.8 62 4.2 S 11 17 6 9 1010.8 1010.7 0.0
23/11:30am 18.6 16.7 11.7 64 3.8 S 13 20 7 11 1010.8 1010.7 0.0
23/11:00am 18.4 16.2 12.2 67 3.4 S 15 20 8 11 1010.7 1010.6 0.0
23/10:30am 18.3 16.1 12.1 67 3.4 S 15 24 8 13 1010.6 1010.5 0.0
23/10:00am 18.1 15.1 12.1 68 3.3 S 19 30 10 16 1010.5 1010.4 0.0
23/09:30am 17.9 15.1 12.6 71 3.0 SSW 19 32 10 17 1010.4 1010.3 0.0
23/09:00am 18.3 14.6 12.7 70 3.1 SW 24 30 13 16 1010.6 1010.5 -
23/08:30am 17.9 13.0 12.4 70 3.1 SSW 30 37 16 20 1009.9 1009.8 -
23/08:00am 17.8 13.6 12.5 71 3.0 SW 26 32 14 17 1009.5 1009.3 -
23/07:30am 17.4 11.5 13.5 78 2.2 SW 37 44 20 24 1008.8 1008.6 -
23/07:00am 17.7 13.4 14.4 81 1.9 SW 30 37 16 20 1008.5 1008.3 -
23/06:30am 17.4 12.9 15.0 86 1.4 SSW 32 39 17 21 1008.3 1008.1 -
23/06:00am 17.3 15.4 16.7 96 0.4 SW 22 26 12 14 1008.3 1008.1 -
23/05:30am 17.4 14.7 16.6 95 0.5 SW 26 33 14 18 1007.8 1007.6 -
23/05:13am 17.9 14.5 16.8 93 0.7 SSW 30 37 16 20 1007.7 1007.5 -
23/05:00am 17.7 17.3 16.2 91 0.9 WSW 13 17 7 9 1007.7 1007.5 -

Other Formats:

Comma delimited format used in spreadsheet applications
http://www.bom.gov.au/fwo/IDS60801/IDS60801.94822.axf

JavaScript Object Notation format (JSON) in row-major order
http://www.bom.gov.au/fwo/IDS60801/IDS60801.94822.json